Airfield :
LOGIN :

Register | Disclaimer

   EN    FR    IT 

 










Legend :    VFR   Marginal VFR   IFR   Intensive IFR   Very Intensive IFR
Visi :
Ceiling :
>= 8 km
>= 3000ft
5 to 8 km
1000 to 3000 ft
1500m to 5 km
500 to 1000 ft
800 to 1500m
200 to 500 ft
< 800m
< 200 ft
Symbols :   Thunderstorms  Fog  Heavy snow  Heavy precipitations  Wind > 20 kt
SIGMETs :     Misc.  Thunderstorms  Icing  Turbulence  Mountain Waves  Volcanic Ashes







- Airport Elevation : 3 ft
- IATA code : DHR


EHKD - Den Helder De Kooy

CURRENT METAR :
  • 190655Z AUTO 14006KT 110V170 2800 R21/2800U BR FEW110 13/13 Q1009 YLO 15006KT 2500 BR NSC BECMG 4000

EXPIRED METARs :
  • 190637Z AUTO 13006KT 2600 R21/2600N BR FEW220 13/12 Q1009 YLO 15006KT 2500 BR NSC BECMG 4000
  • 190625Z AUTO 15006KT 2700 R21/2700D BR NCD 13/12 Q1010 YLO 15005KT 4000 BR NSC TEMPO 2000 MIFG
  • 190555Z AUTO 15004KT 110V170 2400 R21/2300U BR SCT110 12/12 Q1010 YLO 15005KT 4000 BR NSC TEMPO 2000 MIFG
  • 190525Z AUTO 14004KT 2800 R21/2600D BR NCD 12/12 Q1010 YLO 15005KT 4000 BR NSC TEMPO 2000 MIFG
  • 190516Z AUTO 13004KT 100V160 3600 R21/P3000U BR FEW170 13/12 Q1010 YLO 15005KT 3000 BR NSC TEMPO 1500 MIFG
  • 190507Z AUTO 13004KT 4500 R21/2600U BR FEW120 13/12 Q1010 GRN 15005KT 3000 BR NSC TEMPO 1500 MIFG
  • 190455Z AUTO VRB02KT 2500 R21/2200D BR SCT210 12/12 Q1010 YLO 15005KT 3000 BR NSC TEMPO 1500 MIFG
  • 190426Z AUTO 15005KT 2800 R21/2700N BR BKN100 13/12 Q1010 YLO 15005KT 3000 BR NSC TEMPO 1500 MIFG

TAF TAF EHKD
Valid from the 19 at 05:00 until the 19 at 17:00 UTC


190408Z 1905/1917 16006KT 2500 BR NSC
PROB30
TEMPO 1905/1909 SCT006
BECMG 1907/1909 CAVOK
No reported NOTAMs for that airfield.



MET'MAP, your aeronautical weather chart ! - Copyright ORBIFLY December 2007 - Disclaimer

ORBIFLY MET'MAP TEAM :

Programming & Development : Alexandra Zaïnal
Concept & Development : Baudouin d'Aumeries
Co-Development & Prog : Marc-Olivier Méhu
Technical & hardware support : Manuel Goepfert

Contact : metmap@orbifly.com




SOURCES & CREDITS :

   NOAA